Exit 3 Airport


Codes: 00OH/
Name: Exit 3 Airport
City: Wauseon
Country: United States
Elevation: 785 ft.

Photos at Exit 3 Airport


   Photos courtesy of SpottingLog. You can add your own sightings and photos by signing up for a free trial today.



No photos found.

Weather at Exit 3 Airport


Time (UTC)DescriptionTempratureWindCloud coverageVisibilityPressureHumidity
26-Jun-2024 00:00Overcast Clouds26°C13 mph, W100%10000m1007hPa76%
26-Jun-2024 03:00Overcast Clouds24°C7 mph, W100%10000m1008hPa88%
26-Jun-2024 06:00Overcast Clouds22°C7 mph, SW100%10000m1009hPa98%
26-Jun-2024 09:00Overcast Clouds20°C7 mph, W99%10000m1009hPa98%
26-Jun-2024 12:00Overcast Clouds21°C2 mph, NW100%10000m1008hPa95%
26-Jun-2024 15:00Light Rain22°C7 mph, SW98%10000m1008hPa90%
26-Jun-2024 18:00Moderate Rain21°C13 mph, NW99%8560m1009hPa86%
26-Jun-2024 21:00Light Rain19°C7 mph, SW100%10000m1009hPa92%
27-Jun-2024 00:00Broken Clouds20°C7 mph, SW74%10000m1009hPa86%
27-Jun-2024 03:00Light Rain17°C7 mph, NW1%10000m1010hPa94%
27-Jun-2024 06:00Clear Sky15°C7 mph, N1%10000m1011hPa97%
27-Jun-2024 09:00Few Clouds14°C7 mph, N23%10000m1012hPa99%
27-Jun-2024 12:00Scattered Clouds14°C9 mph, N43%10000m1015hPa87%
27-Jun-2024 15:00Clear Sky19°C7 mph, N10%10000m1015hPa72%
27-Jun-2024 18:00Clear Sky21°C7 mph, N8%10000m1015hPa54%
27-Jun-2024 21:00Clear Sky22°C4 mph, N7%10000m1015hPa50%
28-Jun-2024 00:00Scattered Clouds19°C4 mph, NE42%10000m1015hPa69%
28-Jun-2024 03:00Broken Clouds15°C7 mph, NE61%10000m1015hPa70%
28-Jun-2024 06:00Scattered Clouds13°C7 mph, SE46%10000m1015hPa78%
28-Jun-2024 09:00Broken Clouds13°C7 mph, SE73%10000m1015hPa80%
28-Jun-2024 12:00Broken Clouds15°C7 mph, SE73%10000m1016hPa79%
28-Jun-2024 15:00Overcast Clouds20°C11 mph, S92%10000m1014hPa63%
28-Jun-2024 18:00Broken Clouds25°C11 mph, S83%10000m1011hPa62%
28-Jun-2024 21:00Overcast Clouds27°C9 mph, SW100%10000m1010hPa65%
29-Jun-2024 00:00Overcast Clouds23°C4 mph, S100%10000m1009hPa80%
29-Jun-2024 03:00Light Rain20°C7 mph, SW100%7563m1010hPa96%
29-Jun-2024 06:00Light Rain20°C7 mph, S100%10000m1009hPa93%
29-Jun-2024 09:00Light Rain21°C13 mph, SW100%10000m1008hPa92%
29-Jun-2024 12:00Moderate Rain22°C18 mph, SW100%10000m1008hPa96%
29-Jun-2024 15:00Light Rain23°C18 mph, SW100%8131m1009hPa97%
29-Jun-2024 18:00Light Rain25°C18 mph, W100%10000m1010hPa90%
29-Jun-2024 21:00Scattered Clouds27°C16 mph, W36%10000m1011hPa65%
30-Jun-2024 00:00Few Clouds22°C13 mph, NW22%10000m1013hPa73%
30-Jun-2024 03:00Overcast Clouds18°C13 mph, NW100%10000m1016hPa75%
30-Jun-2024 06:00Broken Clouds14°C9 mph, NW55%10000m1018hPa84%
30-Jun-2024 09:00Clear Sky13°C7 mph, NW4%10000m1020hPa86%
30-Jun-2024 12:00Clear Sky14°C11 mph, NW5%10000m1022hPa84%
30-Jun-2024 15:00Few Clouds15°C11 mph, NW21%10000m1024hPa70%
30-Jun-2024 18:00Scattered Clouds18°C11 mph, N45%10000m1024hPa63%
30-Jun-2024 21:00Few Clouds20°C9 mph, N16%10000m1023hPa57%